createdAt,value
2022-09-05T00:01:59.561Z,-65.58891
2022-09-05T00:07:00.469Z,-65.85767
2022-09-05T00:12:01.431Z,-65.02469
2022-09-05T00:17:02.637Z,-65.39084
2022-09-05T00:24:33.160Z,-65.61637
2022-09-05T00:30:23.517Z,-66.24165
2022-09-05T00:36:07.480Z,-66.38313
2022-09-05T00:41:08.362Z,-66.3809
2022-09-05T00:46:09.314Z,-66.59789
2022-09-05T00:51:10.243Z,-66.98548
2022-09-05T00:56:11.155Z,-67.18286
2022-09-05T01:01:21.150Z,-67.21902
2022-09-05T01:06:22.660Z,-67.12185
2022-09-05T01:11:23.600Z,-67.78121
2022-09-05T01:16:24.788Z,-67.95824
2022-09-05T01:21:26.974Z,-67.89869
2022-09-05T01:26:28.797Z,-67.73855
2022-09-05T01:31:29.767Z,-67.53511
2022-09-05T01:36:30.736Z,-67.7604
2022-09-05T01:41:31.723Z,-67.70234
2022-09-05T01:46:32.735Z,-67.88342
2022-09-05T01:51:35.270Z,-67.67987
2022-09-05T02:01:37.230Z,-68.06805
2022-09-05T02:06:38.264Z,-68.1208
2022-09-05T02:11:39.180Z,-68.37123
2022-09-05T02:16:40.128Z,-68.38436
2022-09-05T02:21:56.706Z,-68.54069
2022-09-05T02:26:58.333Z,-68.7052
2022-09-05T02:31:59.328Z,-68.74584
2022-09-05T02:37:00.267Z,-68.66298
2022-09-05T02:45:13.856Z,-68.68751
2022-09-05T02:51:12.809Z,-68.60607
2022-09-05T03:02:31.941Z,-68.74933
2022-09-05T03:07:32.907Z,-69.12933
2022-09-05T03:12:33.892Z,-68.84927
2022-09-05T03:17:34.840Z,-68.60464
2022-09-05T03:22:37.125Z,-68.26872
2022-09-05T03:27:38.335Z,-68.40013
2022-09-05T03:32:42.179Z,-68.29126
2022-09-05T03:37:43.380Z,-69.04689
2022-09-05T03:42:44.416Z,-68.81557
2022-09-05T03:47:45.383Z,-68.80988
2022-09-05T03:57:20.297Z,-68.62854
2022-09-05T04:03:43.627Z,-68.82128
2022-09-05T04:13:13.398Z,-69.30588
2022-09-05T04:18:18.273Z,-69.51478
2022-09-05T04:23:33.959Z,-69.25561
2022-09-05T04:28:34.977Z,-69.44719
2022-09-05T04:33:37.274Z,-69.72639
2022-09-05T04:38:38.311Z,-70.24479
2022-09-05T04:43:39.250Z,-70.38294
2022-09-05T04:48:40.165Z,-70.3904
2022-09-05T04:53:43.757Z,-71.08318
2022-09-05T05:00:54.337Z,-71.00594
2022-09-05T05:16:48.017Z,-71.28204
2022-09-05T05:23:07.850Z,-71.85343
2022-09-05T05:28:14.964Z,-72.17963
2022-09-05T05:33:25.430Z,-71.8777
2022-09-05T05:38:26.525Z,-72.2087
2022-09-05T05:43:27.518Z,-72.36714
2022-09-05T05:48:28.529Z,-72.37731
2022-09-05T05:53:42.615Z,-72.02244
2022-09-05T05:58:44.367Z,-72.40691
2022-09-05T06:03:45.423Z,-72.43961
2022-09-05T06:10:53.891Z,-72.46939
2022-09-05T06:21:34.587Z,-73.0528
2022-09-05T06:27:09.262Z,-73.57371
2022-09-05T06:32:10.240Z,-73.79086
2022-09-05T06:37:11.206Z,-73.69664
2022-09-05T06:42:33.363Z,-73.57963
2022-09-05T06:47:44.103Z,-73.66619
2022-09-05T06:52:45.371Z,-74.43996
2022-09-05T06:57:46.345Z,-74.01067
2022-09-05T07:02:58.858Z,-74.09276
2022-09-05T07:08:01.446Z,-74.9764
2022-09-05T07:13:27.785Z,-75.4214
2022-09-05T07:18:28.727Z,-75.57575
2022-09-05T07:24:05.766Z,-75.84268
2022-09-05T07:29:10.710Z,-75.94918
2022-09-05T07:34:20.650Z,-75.85008
2022-09-05T07:39:29.423Z,-75.82104
2022-09-05T07:44:30.700Z,-75.53506
2022-09-05T07:49:31.760Z,-75.96966
2022-09-05T07:57:00.086Z,-75.7427
2022-09-05T08:02:21.827Z,-75.68771
2022-09-05T08:07:47.423Z,-75.97996
2022-09-05T08:13:24.426Z,-76.25429
2022-09-05T08:18:28.373Z,-76.10777
2022-09-05T08:23:29.285Z,-75.71601
2022-09-05T08:28:38.950Z,-75.2785
2022-09-05T08:33:40.735Z,-74.70885
2022-09-05T08:38:41.683Z,-74.38399
2022-09-05T08:46:47.735Z,-73.62507
2022-09-05T08:51:54.266Z,-73.0804
2022-09-05T08:56:56.483Z,-72.53415
2022-09-05T09:02:45.524Z,-71.5144
2022-09-05T09:07:51.376Z,-71.29419
2022-09-05T09:12:53.277Z,-71.44656
2022-09-05T09:17:54.224Z,-71.05528
2022-09-05T09:22:55.193Z,-70.8597
2022-09-05T09:27:56.112Z,-70.83517
2022-09-05T09:33:48.092Z,-70.591
2022-09-05T09:38:49.203Z,-70.78507
2022-09-05T09:43:52.933Z,-70.47017
2022-09-05T09:48:54.215Z,-69.97461
2022-09-05T09:53:55.251Z,-69.69468
2022-09-05T09:58:56.240Z,-69.52468
2022-09-05T10:08:03.826Z,-69.59043
2022-09-05T10:15:57.946Z,-68.68438
2022-09-05T10:21:16.019Z,-68.25585
2022-09-05T10:26:18.202Z,-67.41812
2022-09-05T10:32:24.594Z,-67.94762
2022-09-05T10:40:13.188Z,-67.09367
2022-09-05T10:45:14.111Z,-67.0208
2022-09-05T10:50:15.185Z,-65.50218
2022-09-05T10:55:16.203Z,-65.27563
2022-09-05T11:02:15.968Z,-65.2609
2022-09-05T11:07:29.860Z,-64.47095
2022-09-05T11:12:30.910Z,-63.50053
2022-09-05T11:17:31.834Z,-63.76253
2022-09-05T11:22:32.857Z,-63.09408
2022-09-05T11:27:33.762Z,-62.19755
2022-09-05T11:39:46.221Z,-62.18183
2022-09-05T11:45:12.442Z,-62.62546
2022-09-05T11:50:13.370Z,-61.97447
2022-09-05T11:55:20.945Z,-62.54668
2022-09-05T12:00:33.469Z,-61.91108
2022-09-05T12:42:09.583Z,-61.53294
2022-09-05T12:47:16.754Z,-58.65654
2022-09-05T12:52:20.094Z,-58.1598
2022-09-05T13:02:25.054Z,-57.79004
2022-09-05T13:08:11.365Z,-57.54419
2022-09-05T13:14:57.075Z,-58.09043
2022-09-05T13:20:06.561Z,-57.38812
2022-09-05T13:25:07.530Z,-56.78525
2022-09-05T13:32:02.553Z,-56.94224
2022-09-05T13:43:10.602Z,-56.0494
2022-09-05T13:48:11.602Z,-56.20454
2022-09-05T13:53:15.466Z,-55.76829
2022-09-05T13:58:16.789Z,-55.97696
2022-09-05T14:03:39.101Z,-54.96161
2022-09-05T14:08:40.818Z,-54.55486
2022-09-05T14:13:41.730Z,-54.83251
2022-09-05T14:18:42.657Z,-53.9524
2022-09-05T14:23:43.610Z,-54.30428
2022-09-05T14:28:46.503Z,-54.51836
2022-09-05T14:37:40.949Z,-53.87096
2022-09-05T14:42:58.865Z,-54.04623
2022-09-05T14:48:02.262Z,-53.61103
2022-09-05T15:02:45.356Z,-52.55289
2022-09-05T15:08:00.602Z,-52.59229
2022-09-05T15:13:02.117Z,-52.35471
2022-09-05T15:18:06.508Z,-51.74873
2022-09-05T15:23:16.479Z,-51.37314
2022-09-05T15:28:19.691Z,-51.75972
2022-09-05T15:33:25.289Z,-50.91037
2022-09-05T15:38:27.102Z,-51.09465
2022-09-05T15:43:28.285Z,-50.83816
2022-09-05T15:48:29.432Z,-50.62262
2022-09-05T15:53:35.821Z,-50.62948
2022-09-05T15:58:52.799Z,-50.7869
2022-09-05T16:09:51.239Z,-50.55208
2022-09-05T16:17:52.515Z,-49.97687
2022-09-05T16:28:22.393Z,-50.56952
2022-09-05T16:33:23.345Z,-50.63837
2022-09-05T16:38:48.511Z,-50.52884
2022-09-05T16:43:51.108Z,-50.36115
2022-09-05T16:48:54.972Z,-50.36053
2022-09-05T16:53:59.043Z,-50.1265
2022-09-05T16:59:00.654Z,-50.27235
2022-09-05T17:04:01.793Z,-50.86789
2022-09-05T17:09:12.653Z,-51.31228
2022-09-05T17:14:14.521Z,-51.0593
2022-09-05T17:19:15.474Z,-50.68232
2022-09-05T17:29:19.600Z,-50.32435
2022-09-05T17:35:21.546Z,-50.42377
2022-09-05T17:40:22.651Z,-50.66434
2022-09-05T17:45:23.630Z,-51.10743
2022-09-05T17:50:24.622Z,-51.75039
2022-09-05T17:55:29.158Z,-52.28548
2022-09-05T18:00:32.437Z,-52.57761
2022-09-05T18:05:33.530Z,-53.58452
2022-09-05T18:10:34.505Z,-53.91033
2022-09-05T18:15:35.409Z,-53.79573
2022-09-05T18:20:36.361Z,-54.05792
2022-09-05T18:25:37.466Z,-53.94605
2022-09-05T18:30:38.862Z,-54.17018
2022-09-05T18:35:39.817Z,-54.32868
2022-09-05T18:40:40.793Z,-54.42006
2022-09-05T18:45:52.135Z,-54.20328
2022-09-05T18:50:53.854Z,-54.435
2022-09-05T18:56:20.179Z,-54.72843
2022-09-05T19:01:27.660Z,-54.74979
2022-09-05T19:06:36.946Z,-54.59914
2022-09-05T19:11:52.773Z,-54.3424
2022-09-05T19:16:54.753Z,-54.15298
2022-09-05T19:22:09.108Z,-53.91516
2022-09-05T19:36:33.260Z,-54.34852
2022-09-05T19:47:50.722Z,-53.6943
2022-09-05T19:53:03.693Z,-54.78863
2022-09-05T19:58:19.803Z,-54.30596
2022-09-05T20:03:24.553Z,-54.23466
2022-09-05T20:08:26.958Z,-54.05758
2022-09-05T20:13:28.073Z,-53.99768
2022-09-05T20:18:31.767Z,-54.01895
2022-09-05T20:23:33.337Z,-53.894
2022-09-05T20:28:34.381Z,-54.05083
2022-09-05T20:33:35.349Z,-54.64599
2022-09-05T20:43:18.453Z,-54.4513
2022-09-05T20:54:06.259Z,-53.74582
2022-09-05T20:59:26.195Z,-53.7815
2022-09-05T21:04:33.037Z,-53.97165
2022-09-05T21:09:34.002Z,-53.22743
2022-09-05T21:14:34.932Z,-53.41099
2022-09-05T21:19:35.887Z,-53.37896
2022-09-05T21:24:36.860Z,-53.46027
2022-09-05T21:29:41.509Z,-53.15124
2022-09-05T21:34:45.172Z,-53.15061
2022-09-05T21:39:59.244Z,-52.84723
2022-09-05T21:47:41.336Z,-52.61275
2022-09-05T21:53:04.168Z,-52.70655
2022-09-05T22:00:51.963Z,-52.20931
2022-09-05T22:05:53.093Z,-52.44203
2022-09-05T22:10:57.370Z,-52.87394
2022-09-05T22:15:58.442Z,-52.47641
2022-09-05T22:21:32.220Z,-52.18558
2022-09-05T22:26:35.296Z,-51.90313
2022-09-05T22:31:36.218Z,-51.48877
2022-09-05T22:36:37.141Z,-51.51504
2022-09-05T22:41:40.614Z,-52.0556
2022-09-05T22:46:41.617Z,-51.95958
2022-09-05T22:51:42.563Z,-51.63573
2022-09-05T22:56:43.506Z,-51.84311
2022-09-05T23:01:44.863Z,-51.19746
2022-09-05T23:06:46.105Z,-50.93326
2022-09-05T23:11:46.999Z,-51.18727
2022-09-05T23:16:48.114Z,-50.56945
2022-09-05T23:21:49.001Z,-50.51435
2022-09-05T23:26:50.378Z,-50.62652
2022-09-05T23:31:51.305Z,-50.6328
2022-09-05T23:47:01.480Z,-49.11851
2022-09-05T23:52:03.471Z,-49.91265
2022-09-05T23:57:04.484Z,-49.43815
